This is the latest recevied weather packets stored in our database for station/object DL4MGC-10. If no packets are shown the sender has not sent any weather packets the latest 10 day(s).
| Time | Temp. | Humidity | Pressure | Rain* | Wind** | Luminosity | Snow |
|---|---|---|---|---|---|---|---|
| 1777850662 | 16.67° C | 56% | 1015 hPa | - | - | - | - |
| 1777849762 | 16.67° C | 55% | 1015 hPa | - | - | - | - |
| 1777848862 | 17.22° C | 54% | 1014.9 hPa | - | - | - | - |
| 1777847962 | 17.22° C | 54% | 1014.9 hPa | - | - | - | - |
| 1777847062 | 17.78° C | 54% | 1014.9 hPa | - | - | - | - |
| 1777846162 | 17.78° C | 53% | 1014.8 hPa | - | - | - | - |
| 1777845262 | 18.33° C | 53% | 1014.7 hPa | - | - | - | - |
| 1777844362 | 18.33° C | 54% | 1014.5 hPa | - | - | - | - |
| 1777843462 | 18.33° C | 58% | 1014.4 hPa | - | - | - | - |
| 1777842561 | 18.89° C | 59% | 1014.2 hPa | - | - | - | - |
| 1777841661 | 18.33° C | 61% | 1014.2 hPa | - | - | - | - |
| 1777840761 | 18.33° C | 62% | 1013.8 hPa | - | - | - | - |
| 1777839861 | 18.33° C | 62% | 1013.4 hPa | - | - | - | - |
| 1777838961 | 18.33° C | 62% | 1013.3 hPa | - | - | - | - |
| 1777838061 | 18.89° C | 61% | 1013.1 hPa | - | - | - | - |
| 1777837161 | 18.89° C | 59% | 1012.8 hPa | - | - | - | - |
| 1777836261 | 19.44° C | 58% | 1012.6 hPa | - | - | - | - |
| 1777835361 | 20° C | 58% | 1012.5 hPa | - | - | - | - |
| 1777834461 | 20.56° C | 56% | 1012.5 hPa | - | - | - | - |
| 1777833561 | 21.11° C | 55% | 1012.4 hPa | - | - | - | - |
| 1777832660 | 21.67° C | 54% | 1012.1 hPa | - | - | - | - |
| 1777831760 | 22.22° C | 50% | 1012 hPa | - | - | - | - |
| 1777830860 | 22.78° C | 49% | 1012.1 hPa | - | - | - | - |
| 1777829960 | 23.89° C | 46% | 1012 hPa | - | - | - | - |
| 1777829060 | 24.44° C | 42% | 1012 hPa | - | - | - | - |
* Rain since midnight (hover to see other rain measurements)
** Current wind speed in m/s (hover to see current wind gust speed)